sensor_id;sensor_type;location;lat;lon;timestamp;P1;durP1;ratioP1;P2;durP2;ratioP2
66751;SDS011;53663;42.676;23.238;2022-11-02T00:01:29;28.10;;;11.73;;
66751;SDS011;53663;42.676;23.238;2022-11-02T00:04:01;23.75;;;9.30;;
66751;SDS011;53663;42.676;23.238;2022-11-02T00:06:27;16.65;;;8.35;;
66751;SDS011;53663;42.676;23.238;2022-11-02T00:08:52;21.45;;;8.45;;
66751;SDS011;53663;42.676;23.238;2022-11-02T00:11:18;25.67;;;8.18;;
66751;SDS011;53663;42.676;23.238;2022-11-02T00:13:43;19.88;;;7.85;;
66751;SDS011;53663;42.676;23.238;2022-11-02T00:16:10;20.88;;;7.80;;
66751;SDS011;53663;42.676;23.238;2022-11-02T00:18:38;15.73;;;7.60;;
66751;SDS011;53663;42.676;23.238;2022-11-02T00:21:05;20.58;;;8.15;;
66751;SDS011;53663;42.676;23.238;2022-11-02T00:23:30;22.80;;;8.60;;
66751;SDS011;53663;42.676;23.238;2022-11-02T00:25:56;19.25;;;7.20;;
66751;SDS011;53663;42.676;23.238;2022-11-02T00:28:23;30.42;;;7.68;;
66751;SDS011;53663;42.676;23.238;2022-11-02T00:30:48;18.45;;;7.97;;
66751;SDS011;53663;42.676;23.238;2022-11-02T00:33:14;20.27;;;7.95;;
66751;SDS011;53663;42.676;23.238;2022-11-02T00:35:39;27.20;;;8.38;;
66751;SDS011;53663;42.676;23.238;2022-11-02T00:38:06;21.17;;;8.38;;
66751;SDS011;53663;42.676;23.238;2022-11-02T00:40:32;34.08;;;9.85;;
66751;SDS011;53663;42.676;23.238;2022-11-02T00:42:57;20.60;;;8.45;;
66751;SDS011;53663;42.676;23.238;2022-11-02T00:45:23;21.08;;;8.52;;
66751;SDS011;53663;42.676;23.238;2022-11-02T00:47:49;26.08;;;8.02;;
66751;SDS011;53663;42.676;23.238;2022-11-02T00:50:15;27.08;;;8.20;;
66751;SDS011;53663;42.676;23.238;2022-11-02T00:52:40;23.08;;;7.97;;
66751;SDS011;53663;42.676;23.238;2022-11-02T00:55:07;24.67;;;8.15;;
66751;SDS011;53663;42.676;23.238;2022-11-02T00:57:38;22.73;;;8.32;;
66751;SDS011;53663;42.676;23.238;2022-11-02T01:00:07;25.88;;;8.32;;
66751;SDS011;53663;42.676;23.238;2022-11-02T01:02:34;18.70;;;6.80;;
66751;SDS011;53663;42.676;23.238;2022-11-02T01:05:01;19.05;;;7.45;;
66751;SDS011;53663;42.676;23.238;2022-11-02T01:07:27;19.27;;;7.85;;
66751;SDS011;53663;42.676;23.238;2022-11-02T01:09:52;23.63;;;7.22;;
66751;SDS011;53663;42.676;23.238;2022-11-02T01:12:18;22.35;;;6.75;;
66751;SDS011;53663;42.676;23.238;2022-11-02T01:14:47;23.77;;;7.28;;
66751;SDS011;53663;42.676;23.238;2022-11-02T01:17:13;19.85;;;7.75;;
66751;SDS011;53663;42.676;23.238;2022-11-02T01:19:40;20.20;;;7.50;;
66751;SDS011;53663;42.676;23.238;2022-11-02T01:22:06;30.33;;;8.13;;
66751;SDS011;53663;42.676;23.238;2022-11-02T01:24:33;15.90;;;7.68;;
66751;SDS011;53663;42.676;23.238;2022-11-02T01:26:58;20.25;;;8.00;;
66751;SDS011;53663;42.676;23.238;2022-11-02T01:29:24;22.15;;;8.10;;
66751;SDS011;53663;42.676;23.238;2022-11-02T01:31:50;25.27;;;6.97;;
66751;SDS011;53663;42.676;23.238;2022-11-02T01:34:18;27.83;;;6.95;;
66751;SDS011;53663;42.676;23.238;2022-11-02T01:36:44;14.50;;;7.55;;
66751;SDS011;53663;42.676;23.238;2022-11-02T01:39:11;16.60;;;7.30;;
66751;SDS011;53663;42.676;23.238;2022-11-02T01:41:36;26.17;;;8.18;;
66751;SDS011;53663;42.676;23.238;2022-11-02T01:44:03;26.65;;;7.43;;
66751;SDS011;53663;42.676;23.238;2022-11-02T01:49:09;22.00;;;7.95;;
66751;SDS011;53663;42.676;23.238;2022-11-02T01:54:05;28.02;;;8.07;;
66751;SDS011;53663;42.676;23.238;2022-11-02T01:56:35;23.92;;;9.15;;
66751;SDS011;53663;42.676;23.238;2022-11-02T01:59:04;23.20;;;8.52;;
66751;SDS011;53663;42.676;23.238;2022-11-02T02:01:32;25.35;;;8.73;;
66751;SDS011;53663;42.676;23.238;2022-11-02T02:03:58;18.02;;;8.00;;
66751;SDS011;53663;42.676;23.238;2022-11-02T02:06:24;28.08;;;8.65;;
66751;SDS011;53663;42.676;23.238;2022-11-02T02:08:50;21.73;;;8.25;;
66751;SDS011;53663;42.676;23.238;2022-11-02T02:13:56;30.33;;;8.63;;
66751;SDS011;53663;42.676;23.238;2022-11-02T02:16:46;26.80;;;8.75;;
66751;SDS011;53663;42.676;23.238;2022-11-02T02:19:43;23.42;;;8.57;;
66751;SDS011;53663;42.676;23.238;2022-11-02T02:31:03;21.08;;;8.13;;
66751;SDS011;53663;42.676;23.238;2022-11-02T02:33:38;41.78;;;8.68;;
66751;SDS011;53663;42.676;23.238;2022-11-02T02:36:14;17.65;;;7.43;;
66751;SDS011;53663;42.676;23.238;2022-11-02T02:38:48;24.35;;;7.03;;
66751;SDS011;53663;42.676;23.238;2022-11-02T02:41:32;18.60;;;7.15;;
66751;SDS011;53663;42.676;23.238;2022-11-02T02:44:04;22.38;;;7.88;;
66751;SDS011;53663;42.676;23.238;2022-11-02T02:49:49;26.08;;;7.47;;
66751;SDS011;53663;42.676;23.238;2022-11-02T02:52:18;15.25;;;7.32;;
66751;SDS011;53663;42.676;23.238;2022-11-02T02:54:46;20.90;;;7.00;;
66751;SDS011;53663;42.676;23.238;2022-11-02T02:57:16;15.82;;;6.68;;
66751;SDS011;53663;42.676;23.238;2022-11-02T02:59:45;20.85;;;6.70;;
66751;SDS011;53663;42.676;23.238;2022-11-02T03:02:22;18.27;;;6.22;;
66751;SDS011;53663;42.676;23.238;2022-11-02T03:04:51;17.15;;;6.10;;
66751;SDS011;53663;42.676;23.238;2022-11-02T03:07:18;21.27;;;6.95;;
66751;SDS011;53663;42.676;23.238;2022-11-02T03:15:15;15.50;;;7.53;;
66751;SDS011;53663;42.676;23.238;2022-11-02T03:31:02;18.00;;;8.80;;
66751;SDS011;53663;42.676;23.238;2022-11-02T03:33:37;19.60;;;7.97;;
66751;SDS011;53663;42.676;23.238;2022-11-02T03:36:32;21.90;;;8.63;;
66751;SDS011;53663;42.676;23.238;2022-11-02T03:39:06;19.42;;;7.25;;
66751;SDS011;53663;42.676;23.238;2022-11-02T03:41:36;26.10;;;8.02;;
66751;SDS011;53663;42.676;23.238;2022-11-02T03:44:06;17.73;;;7.30;;
66751;SDS011;53663;42.676;23.238;2022-11-02T03:46:35;25.85;;;7.53;;
66751;SDS011;53663;42.676;23.238;2022-11-02T03:49:04;17.15;;;7.90;;
66751;SDS011;53663;42.676;23.238;2022-11-02T03:51:32;21.52;;;7.82;;
66751;SDS011;53663;42.676;23.238;2022-11-02T03:54:01;16.73;;;6.90;;
66751;SDS011;53663;42.676;23.238;2022-11-02T03:56:30;20.67;;;7.15;;
66751;SDS011;53663;42.676;23.238;2022-11-02T03:59:02;19.63;;;7.10;;
66751;SDS011;53663;42.676;23.238;2022-11-02T04:01:28;30.40;;;7.28;;
66751;SDS011;53663;42.676;23.238;2022-11-02T04:04:02;21.35;;;7.03;;
66751;SDS011;53663;42.676;23.238;2022-11-02T04:06:28;29.05;;;8.43;;
66751;SDS011;53663;42.676;23.238;2022-11-02T04:08:54;18.00;;;7.70;;
66751;SDS011;53663;42.676;23.238;2022-11-02T04:11:20;20.92;;;7.43;;
66751;SDS011;53663;42.676;23.238;2022-11-02T04:14:10;23.75;;;7.03;;
66751;SDS011;53663;42.676;23.238;2022-11-02T04:16:56;21.10;;;7.35;;
66751;SDS011;53663;42.676;23.238;2022-11-02T04:19:44;19.85;;;7.53;;
66751;SDS011;53663;42.676;23.238;2022-11-02T04:22:10;18.15;;;7.45;;
66751;SDS011;53663;42.676;23.238;2022-11-02T04:25:03;22.90;;;8.85;;
66751;SDS011;53663;42.676;23.238;2022-11-02T04:27:52;25.73;;;8.82;;
66751;SDS011;53663;42.676;23.238;2022-11-02T04:30:22;25.55;;;9.00;;
66751;SDS011;53663;42.676;23.238;2022-11-02T04:32:49;23.90;;;9.13;;
66751;SDS011;53663;42.676;23.238;2022-11-02T04:35:41;23.25;;;8.93;;
66751;SDS011;53663;42.676;23.238;2022-11-02T04:38:07;20.65;;;8.40;;
66751;SDS011;53663;42.676;23.238;2022-11-02T04:40:54;20.33;;;8.20;;
66751;SDS011;53663;42.676;23.238;2022-11-02T04:43:39;28.88;;;8.48;;
66751;SDS011;53663;42.676;23.238;2022-11-02T04:46:05;22.75;;;8.63;;
66751;SDS011;53663;42.676;23.238;2022-11-02T04:48:32;27.38;;;7.95;;
66751;SDS011;53663;42.676;23.238;2022-11-02T04:50:59;19.77;;;7.85;;
66751;SDS011;53663;42.676;23.238;2022-11-02T04:53:25;22.00;;;7.95;;
66751;SDS011;53663;42.676;23.238;2022-11-02T04:55:51;23.38;;;9.07;;
66751;SDS011;53663;42.676;23.238;2022-11-02T04:58:17;18.27;;;7.35;;
66751;SDS011;53663;42.676;23.238;2022-11-02T05:00:42;26.90;;;8.45;;
66751;SDS011;53663;42.676;23.238;2022-11-02T05:03:10;28.95;;;8.68;;
66751;SDS011;53663;42.676;23.238;2022-11-02T05:05:36;22.88;;;8.75;;
66751;SDS011;53663;42.676;23.238;2022-11-02T05:08:01;27.30;;;9.07;;
66751;SDS011;53663;42.676;23.238;2022-11-02T05:10:27;28.35;;;9.40;;
66751;SDS011;53663;42.676;23.238;2022-11-02T05:12:58;31.08;;;10.25;;
66751;SDS011;53663;42.676;23.238;2022-11-02T05:15:27;36.50;;;10.02;;
66751;SDS011;53663;42.676;23.238;2022-11-02T05:17:53;26.45;;;8.90;;
66751;SDS011;53663;42.676;23.238;2022-11-02T05:20:19;25.02;;;8.95;;
66751;SDS011;53663;42.676;23.238;2022-11-02T05:22:46;35.20;;;9.18;;
66751;SDS011;53663;42.676;23.238;2022-11-02T05:25:14;26.17;;;9.35;;
66751;SDS011;53663;42.676;23.238;2022-11-02T05:27:40;31.00;;;9.90;;
66751;SDS011;53663;42.676;23.238;2022-11-02T05:30:06;29.30;;;9.57;;
66751;SDS011;53663;42.676;23.238;2022-11-02T05:32:33;31.50;;;10.52;;
66751;SDS011;53663;42.676;23.238;2022-11-02T05:34:59;33.65;;;10.07;;
66751;SDS011;53663;42.676;23.238;2022-11-02T05:37:26;35.92;;;10.63;;
66751;SDS011;53663;42.676;23.238;2022-11-02T05:39:52;29.17;;;9.95;;
66751;SDS011;53663;42.676;23.238;2022-11-02T05:42:17;25.55;;;9.65;;
66751;SDS011;53663;42.676;23.238;2022-11-02T05:44:43;34.22;;;10.23;;
66751;SDS011;53663;42.676;23.238;2022-11-02T05:47:08;28.65;;;9.82;;
66751;SDS011;53663;42.676;23.238;2022-11-02T05:49:34;34.17;;;10.40;;
66751;SDS011;53663;42.676;23.238;2022-11-02T05:51:59;31.10;;;9.98;;
66751;SDS011;53663;42.676;23.238;2022-11-02T05:54:25;39.60;;;10.95;;
66751;SDS011;53663;42.676;23.238;2022-11-02T05:56:50;33.30;;;10.05;;
66751;SDS011;53663;42.676;23.238;2022-11-02T05:59:16;37.65;;;11.25;;
66751;SDS011;53663;42.676;23.238;2022-11-02T06:01:41;51.35;;;10.93;;
66751;SDS011;53663;42.676;23.238;2022-11-02T06:04:07;32.25;;;9.25;;
66751;SDS011;53663;42.676;23.238;2022-11-02T06:06:33;55.28;;;11.27;;
66751;SDS011;53663;42.676;23.238;2022-11-02T06:08:58;36.13;;;10.05;;
66751;SDS011;53663;42.676;23.238;2022-11-02T06:11:24;46.13;;;10.52;;
66751;SDS011;53663;42.676;23.238;2022-11-02T06:13:49;32.75;;;10.15;;
66751;SDS011;53663;42.676;23.238;2022-11-02T06:16:16;35.60;;;9.88;;
66751;SDS011;53663;42.676;23.238;2022-11-02T06:18:42;47.40;;;10.70;;
66751;SDS011;53663;42.676;23.238;2022-11-02T06:21:07;41.83;;;11.30;;
66751;SDS011;53663;42.676;23.238;2022-11-02T06:23:33;36.15;;;11.48;;
66751;SDS011;53663;42.676;23.238;2022-11-02T06:25:59;31.42;;;10.23;;
66751;SDS011;53663;42.676;23.238;2022-11-02T06:28:25;41.75;;;10.65;;
66751;SDS011;53663;42.676;23.238;2022-11-02T06:30:52;32.70;;;11.70;;
66751;SDS011;53663;42.676;23.238;2022-11-02T06:33:18;36.38;;;10.63;;
66751;SDS011;53663;42.676;23.238;2022-11-02T06:35:47;32.60;;;11.07;;
66751;SDS011;53663;42.676;23.238;2022-11-02T06:38:15;31.13;;;10.82;;
66751;SDS011;53663;42.676;23.238;2022-11-02T06:40:41;26.55;;;9.60;;
66751;SDS011;53663;42.676;23.238;2022-11-02T06:43:07;27.83;;;10.18;;
66751;SDS011;53663;42.676;23.238;2022-11-02T06:45:32;29.70;;;9.35;;
66751;SDS011;53663;42.676;23.238;2022-11-02T06:47:58;28.98;;;9.50;;
66751;SDS011;53663;42.676;23.238;2022-11-02T06:50:24;25.40;;;8.95;;
66751;SDS011;53663;42.676;23.238;2022-11-02T06:52:50;39.40;;;10.40;;
66751;SDS011;53663;42.676;23.238;2022-11-02T06:55:16;24.95;;;7.97;;
66751;SDS011;53663;42.676;23.238;2022-11-02T06:57:42;21.95;;;7.72;;
66751;SDS011;53663;42.676;23.238;2022-11-02T07:00:12;24.83;;;8.30;;
66751;SDS011;53663;42.676;23.238;2022-11-02T07:02:42;25.33;;;8.95;;
66751;SDS011;53663;42.676;23.238;2022-11-02T07:05:08;40.05;;;10.95;;
66751;SDS011;53663;42.676;23.238;2022-11-02T07:07:34;31.35;;;12.10;;
66751;SDS011;53663;42.676;23.238;2022-11-02T07:09:59;31.65;;;10.50;;
66751;SDS011;53663;42.676;23.238;2022-11-02T07:12:25;30.20;;;12.23;;
66751;SDS011;53663;42.676;23.238;2022-11-02T07:14:50;34.47;;;11.75;;
66751;SDS011;53663;42.676;23.238;2022-11-02T07:17:16;43.30;;;12.07;;
66751;SDS011;53663;42.676;23.238;2022-11-02T07:19:41;26.27;;;10.60;;
66751;SDS011;53663;42.676;23.238;2022-11-02T07:22:07;31.38;;;11.15;;
66751;SDS011;53663;42.676;23.238;2022-11-02T07:24:32;31.00;;;10.68;;
66751;SDS011;53663;42.676;23.238;2022-11-02T07:26:58;40.33;;;11.18;;
66751;SDS011;53663;42.676;23.238;2022-11-02T07:29:23;36.10;;;11.27;;
66751;SDS011;53663;42.676;23.238;2022-11-02T07:31:49;32.15;;;11.00;;
66751;SDS011;53663;42.676;23.238;2022-11-02T07:34:14;37.92;;;11.25;;
66751;SDS011;53663;42.676;23.238;2022-11-02T07:36:40;31.25;;;11.00;;
66751;SDS011;53663;42.676;23.238;2022-11-02T07:39:05;26.63;;;11.15;;
66751;SDS011;53663;42.676;23.238;2022-11-02T07:41:32;29.30;;;10.98;;
66751;SDS011;53663;42.676;23.238;2022-11-02T07:43:58;35.13;;;11.73;;
66751;SDS011;53663;42.676;23.238;2022-11-02T07:46:31;36.17;;;12.20;;
66751;SDS011;53663;42.676;23.238;2022-11-02T07:48:56;33.03;;;11.30;;
66751;SDS011;53663;42.676;23.238;2022-11-02T07:51:22;27.10;;;10.18;;
66751;SDS011;53663;42.676;23.238;2022-11-02T07:53:47;30.58;;;11.13;;
66751;SDS011;53663;42.676;23.238;2022-11-02T07:56:13;38.85;;;11.25;;
66751;SDS011;53663;42.676;23.238;2022-11-02T07:58:38;38.33;;;10.35;;
66751;SDS011;53663;42.676;23.238;2022-11-02T08:01:04;26.45;;;10.07;;
66751;SDS011;53663;42.676;23.238;2022-11-02T08:03:29;30.90;;;11.10;;
66751;SDS011;53663;42.676;23.238;2022-11-02T08:05:55;42.25;;;11.23;;
66751;SDS011;53663;42.676;23.238;2022-11-02T08:08:21;38.00;;;11.15;;
66751;SDS011;53663;42.676;23.238;2022-11-02T08:10:48;27.92;;;12.15;;
66751;SDS011;53663;42.676;23.238;2022-11-02T08:13:19;32.95;;;11.73;;
66751;SDS011;53663;42.676;23.238;2022-11-02T08:15:53;29.35;;;11.35;;
66751;SDS011;53663;42.676;23.238;2022-11-02T08:18:19;28.85;;;11.18;;
66751;SDS011;53663;42.676;23.238;2022-11-02T08:20:46;35.50;;;10.93;;
66751;SDS011;53663;42.676;23.238;2022-11-02T08:23:13;35.58;;;11.05;;
66751;SDS011;53663;42.676;23.238;2022-11-02T08:25:40;36.17;;;11.50;;
66751;SDS011;53663;42.676;23.238;2022-11-02T08:28:06;34.28;;;11.80;;
66751;SDS011;53663;42.676;23.238;2022-11-02T08:30:45;33.95;;;11.85;;
66751;SDS011;53663;42.676;23.238;2022-11-02T08:33:11;42.38;;;12.35;;
66751;SDS011;53663;42.676;23.238;2022-11-02T08:35:40;36.27;;;11.70;;
66751;SDS011;53663;42.676;23.238;2022-11-02T08:38:07;41.78;;;12.15;;
66751;SDS011;53663;42.676;23.238;2022-11-02T08:40:33;34.45;;;11.73;;
66751;SDS011;53663;42.676;23.238;2022-11-02T08:43:00;36.08;;;12.32;;
66751;SDS011;53663;42.676;23.238;2022-11-02T08:45:27;41.20;;;13.10;;
66751;SDS011;53663;42.676;23.238;2022-11-02T08:47:55;40.95;;;12.45;;
66751;SDS011;53663;42.676;23.238;2022-11-02T08:50:20;31.85;;;13.13;;
66751;SDS011;53663;42.676;23.238;2022-11-02T08:52:47;41.67;;;13.50;;
66751;SDS011;53663;42.676;23.238;2022-11-02T08:55:12;35.67;;;14.10;;
66751;SDS011;53663;42.676;23.238;2022-11-02T08:57:51;32.38;;;12.65;;
66751;SDS011;53663;42.676;23.238;2022-11-02T09:00:19;45.80;;;18.92;;
66751;SDS011;53663;42.676;23.238;2022-11-02T09:02:59;34.70;;;13.93;;
66751;SDS011;53663;42.676;23.238;2022-11-02T09:05:25;37.88;;;15.90;;
66751;SDS011;53663;42.676;23.238;2022-11-02T09:07:58;42.35;;;14.57;;
66751;SDS011;53663;42.676;23.238;2022-11-02T09:10:29;35.92;;;13.90;;
66751;SDS011;53663;42.676;23.238;2022-11-02T09:12:57;45.17;;;15.18;;
66751;SDS011;53663;42.676;23.238;2022-11-02T09:15:23;32.55;;;16.60;;
66751;SDS011;53663;42.676;23.238;2022-11-02T09:17:48;50.65;;;18.38;;
66751;SDS011;53663;42.676;23.238;2022-11-02T09:20:17;45.20;;;24.48;;
66751;SDS011;53663;42.676;23.238;2022-11-02T09:22:44;41.92;;;17.98;;
66751;SDS011;53663;42.676;23.238;2022-11-02T09:25:10;45.80;;;16.30;;
66751;SDS011;53663;42.676;23.238;2022-11-02T09:27:36;45.35;;;14.60;;
66751;SDS011;53663;42.676;23.238;2022-11-02T09:30:02;45.25;;;17.75;;
66751;SDS011;53663;42.676;23.238;2022-11-02T09:32:29;41.50;;;19.85;;
66751;SDS011;53663;42.676;23.238;2022-11-02T09:34:58;40.80;;;15.80;;
66751;SDS011;53663;42.676;23.238;2022-11-02T09:37:25;46.90;;;25.50;;
66751;SDS011;53663;42.676;23.238;2022-11-02T09:39:51;41.58;;;20.10;;
66751;SDS011;53663;42.676;23.238;2022-11-02T09:43:05;46.95;;;18.52;;
66751;SDS011;53663;42.676;23.238;2022-11-02T09:45:18;51.42;;;23.02;;
66751;SDS011;53663;42.676;23.238;2022-11-02T09:47:53;31.80;;;12.77;;
66751;SDS011;53663;42.676;23.238;2022-11-02T09:50:26;41.17;;;16.35;;
66751;SDS011;53663;42.676;23.238;2022-11-02T09:53:03;37.00;;;15.88;;
66751;SDS011;53663;42.676;23.238;2022-11-02T09:55:35;46.38;;;14.90;;
66751;SDS011;53663;42.676;23.238;2022-11-02T09:58:12;38.40;;;14.35;;
66751;SDS011;53663;42.676;23.238;2022-11-02T10:00:42;36.47;;;17.45;;
66751;SDS011;53663;42.676;23.238;2022-11-02T10:03:30;40.53;;;12.95;;
66751;SDS011;53663;42.676;23.238;2022-11-02T10:06:10;42.90;;;15.50;;
66751;SDS011;53663;42.676;23.238;2022-11-02T10:19:56;29.25;;;7.30;;
66751;SDS011;53663;42.676;23.238;2022-11-02T10:22:26;20.83;;;6.15;;
66751;SDS011;53663;42.676;23.238;2022-11-02T10:24:56;18.13;;;5.93;;
66751;SDS011;53663;42.676;23.238;2022-11-02T10:27:26;14.43;;;6.10;;
66751;SDS011;53663;42.676;23.238;2022-11-02T10:32:33;21.85;;;5.70;;
66751;SDS011;53663;42.676;23.238;2022-11-02T10:35:03;21.20;;;5.82;;
66751;SDS011;53663;42.676;23.238;2022-11-02T10:50:47;21.85;;;8.18;;
66751;SDS011;53663;42.676;23.238;2022-11-02T10:53:32;24.17;;;6.72;;
66751;SDS011;53663;42.676;23.238;2022-11-02T10:56:11;18.05;;;7.00;;
66751;SDS011;53663;42.676;23.238;2022-11-02T10:58:44;21.88;;;7.80;;
66751;SDS011;53663;42.676;23.238;2022-11-02T11:01:32;18.38;;;7.45;;
66751;SDS011;53663;42.676;23.238;2022-11-02T11:08:57;22.97;;;7.90;;
66751;SDS011;53663;42.676;23.238;2022-11-02T11:11:29;18.85;;;5.72;;
66751;SDS011;53663;42.676;23.238;2022-11-02T11:16:36;15.00;;;4.40;;
66751;SDS011;53663;42.676;23.238;2022-11-02T11:19:17;19.13;;;5.10;;
66751;SDS011;53663;42.676;23.238;2022-11-02T11:21:45;14.82;;;4.70;;
66751;SDS011;53663;42.676;23.238;2022-11-02T11:29:29;19.08;;;4.03;;
66751;SDS011;53663;42.676;23.238;2022-11-02T11:32:02;12.80;;;4.50;;
66751;SDS011;53663;42.676;23.238;2022-11-02T11:34:29;14.90;;;4.60;;
66751;SDS011;53663;42.676;23.238;2022-11-02T11:37:05;21.30;;;4.68;;
66751;SDS011;53663;42.676;23.238;2022-11-02T11:39:33;17.88;;;4.65;;
66751;SDS011;53663;42.676;23.238;2022-11-02T11:42:01;16.58;;;4.70;;
66751;SDS011;53663;42.676;23.238;2022-11-02T11:44:28;14.77;;;4.13;;
66751;SDS011;53663;42.676;23.238;2022-11-02T11:46:55;14.75;;;4.30;;
66751;SDS011;53663;42.676;23.238;2022-11-02T11:49:45;10.35;;;3.90;;
66751;SDS011;53663;42.676;23.238;2022-11-02T11:52:15;18.83;;;4.40;;
66751;SDS011;53663;42.676;23.238;2022-11-02T11:54:53;16.85;;;4.03;;
66751;SDS011;53663;42.676;23.238;2022-11-02T11:59:52;15.85;;;4.00;;
66751;SDS011;53663;42.676;23.238;2022-11-02T12:04:50;21.70;;;4.68;;
66751;SDS011;53663;42.676;23.238;2022-11-02T12:12:56;19.80;;;5.35;;
66751;SDS011;53663;42.676;23.238;2022-11-02T12:29:41;16.83;;;6.45;;
66751;SDS011;53663;42.676;23.238;2022-11-02T12:46:20;56.40;;;6.65;;
66751;SDS011;53663;42.676;23.238;2022-11-02T12:54:22;14.68;;;4.88;;
66751;SDS011;53663;42.676;23.238;2022-11-02T12:56:52;25.58;;;5.95;;
66751;SDS011;53663;42.676;23.238;2022-11-02T12:59:23;19.48;;;5.40;;
66751;SDS011;53663;42.676;23.238;2022-11-02T13:02:26;17.85;;;4.93;;
66751;SDS011;53663;42.676;23.238;2022-11-02T13:05:20;24.35;;;5.20;;
66751;SDS011;53663;42.676;23.238;2022-11-02T13:08:10;18.70;;;4.80;;
66751;SDS011;53663;42.676;23.238;2022-11-02T13:10:59;16.20;;;4.75;;
66751;SDS011;53663;42.676;23.238;2022-11-02T13:13:35;21.88;;;5.35;;
66751;SDS011;53663;42.676;23.238;2022-11-02T13:16:08;20.02;;;4.80;;
66751;SDS011;53663;42.676;23.238;2022-11-02T13:18:57;17.90;;;5.30;;
66751;SDS011;53663;42.676;23.238;2022-11-02T13:21:35;15.95;;;4.80;;
66751;SDS011;53663;42.676;23.238;2022-11-02T13:24:04;24.60;;;5.55;;
66751;SDS011;53663;42.676;23.238;2022-11-02T13:26:35;25.58;;;4.75;;
66751;SDS011;53663;42.676;23.238;2022-11-02T13:29:10;15.65;;;5.43;;
66751;SDS011;53663;42.676;23.238;2022-11-02T13:31:43;15.98;;;4.97;;
66751;SDS011;53663;42.676;23.238;2022-11-02T13:34:21;25.08;;;4.82;;
66751;SDS011;53663;42.676;23.238;2022-11-02T13:37:15;22.30;;;5.00;;
66751;SDS011;53663;42.676;23.238;2022-11-02T13:39:55;21.83;;;4.78;;
66751;SDS011;53663;42.676;23.238;2022-11-02T13:45:15;18.90;;;5.20;;
66751;SDS011;53663;42.676;23.238;2022-11-02T13:50:47;16.55;;;5.38;;
66751;SDS011;53663;42.676;23.238;2022-11-02T13:53:16;15.25;;;4.82;;
66751;SDS011;53663;42.676;23.238;2022-11-02T13:55:51;32.35;;;5.22;;
66751;SDS011;53663;42.676;23.238;2022-11-02T13:58:24;25.83;;;5.60;;
66751;SDS011;53663;42.676;23.238;2022-11-02T14:00:57;23.13;;;6.22;;
66751;SDS011;53663;42.676;23.238;2022-11-02T14:03:27;11.32;;;4.65;;
66751;SDS011;53663;42.676;23.238;2022-11-02T14:05:58;19.50;;;5.30;;
66751;SDS011;53663;42.676;23.238;2022-11-02T14:21:43;35.40;;;5.18;;
66751;SDS011;53663;42.676;23.238;2022-11-02T14:49:00;21.42;;;5.53;;
66751;SDS011;53663;42.676;23.238;2022-11-02T14:51:31;22.85;;;5.28;;
66751;SDS011;53663;42.676;23.238;2022-11-02T14:54:01;22.58;;;5.90;;
66751;SDS011;53663;42.676;23.238;2022-11-02T14:59:17;24.33;;;5.57;;
66751;SDS011;53663;42.676;23.238;2022-11-02T15:04:45;28.20;;;6.30;;
66751;SDS011;53663;42.676;23.238;2022-11-02T15:07:14;19.67;;;5.70;;
66751;SDS011;53663;42.676;23.238;2022-11-02T15:09:51;31.70;;;5.78;;
66751;SDS011;53663;42.676;23.238;2022-11-02T15:14:55;18.73;;;5.00;;
66751;SDS011;53663;42.676;23.238;2022-11-02T15:19:50;26.55;;;6.03;;
66751;SDS011;53663;42.676;23.238;2022-11-02T15:24:55;25.95;;;6.32;;
66751;SDS011;53663;42.676;23.238;2022-11-02T15:27:24;25.60;;;6.00;;
66751;SDS011;53663;42.676;23.238;2022-11-02T15:29:50;17.95;;;5.55;;
66751;SDS011;53663;42.676;23.238;2022-11-02T15:32:17;26.20;;;6.13;;
66751;SDS011;53663;42.676;23.238;2022-11-02T15:34:47;25.75;;;6.40;;
66751;SDS011;53663;42.676;23.238;2022-11-02T15:37:18;17.98;;;5.28;;
66751;SDS011;53663;42.676;23.238;2022-11-02T15:39:56;16.60;;;4.18;;
66751;SDS011;53663;42.676;23.238;2022-11-02T15:42:37;22.13;;;6.63;;
66751;SDS011;53663;42.676;23.238;2022-11-02T15:45:20;19.60;;;6.13;;
66751;SDS011;53663;42.676;23.238;2022-11-02T15:48:11;14.50;;;5.50;;
66751;SDS011;53663;42.676;23.238;2022-11-02T15:50:46;21.15;;;5.65;;
66751;SDS011;53663;42.676;23.238;2022-11-02T16:04:53;19.58;;;4.50;;
66751;SDS011;53663;42.676;23.238;2022-11-02T16:07:22;35.27;;;5.23;;
66751;SDS011;53663;42.676;23.238;2022-11-02T16:09:48;17.85;;;4.97;;
66751;SDS011;53663;42.676;23.238;2022-11-02T16:12:18;12.95;;;4.82;;
66751;SDS011;53663;42.676;23.238;2022-11-02T16:14:55;16.08;;;4.97;;
66751;SDS011;53663;42.676;23.238;2022-11-02T16:17:27;21.52;;;5.78;;
66751;SDS011;53663;42.676;23.238;2022-11-02T16:22:37;19.48;;;5.20;;
66751;SDS011;53663;42.676;23.238;2022-11-02T16:25:09;13.75;;;5.50;;
66751;SDS011;53663;42.676;23.238;2022-11-02T16:27:39;17.55;;;5.35;;
66751;SDS011;53663;42.676;23.238;2022-11-02T16:30:05;13.23;;;4.60;;
66751;SDS011;53663;42.676;23.238;2022-11-02T16:32:31;17.80;;;6.13;;
66751;SDS011;53663;42.676;23.238;2022-11-02T16:34:57;17.90;;;5.72;;
66751;SDS011;53663;42.676;23.238;2022-11-02T16:37:25;15.45;;;5.40;;
66751;SDS011;53663;42.676;23.238;2022-11-02T16:39:50;19.98;;;5.30;;
66751;SDS011;53663;42.676;23.238;2022-11-02T16:42:17;20.48;;;6.05;;
66751;SDS011;53663;42.676;23.238;2022-11-02T16:44:53;16.83;;;5.00;;
66751;SDS011;53663;42.676;23.238;2022-11-02T16:47:32;18.73;;;5.70;;
66751;SDS011;53663;42.676;23.238;2022-11-02T16:50:02;21.05;;;5.78;;
66751;SDS011;53663;42.676;23.238;2022-11-02T16:52:32;20.88;;;5.50;;
66751;SDS011;53663;42.676;23.238;2022-11-02T16:54:59;14.98;;;5.38;;
66751;SDS011;53663;42.676;23.238;2022-11-02T16:57:29;18.10;;;5.45;;
66751;SDS011;53663;42.676;23.238;2022-11-02T16:59:59;18.35;;;4.78;;
66751;SDS011;53663;42.676;23.238;2022-11-02T17:05:05;16.83;;;5.55;;
66751;SDS011;53663;42.676;23.238;2022-11-02T17:07:39;14.55;;;5.07;;
66751;SDS011;53663;42.676;23.238;2022-11-02T17:10:07;20.55;;;5.38;;
66751;SDS011;53663;42.676;23.238;2022-11-02T17:12:42;16.33;;;4.90;;
66751;SDS011;53663;42.676;23.238;2022-11-02T17:15:16;11.50;;;4.32;;
66751;SDS011;53663;42.676;23.238;2022-11-02T17:17:43;13.52;;;4.88;;
66751;SDS011;53663;42.676;23.238;2022-11-02T17:22:37;16.58;;;4.93;;
66751;SDS011;53663;42.676;23.238;2022-11-02T17:27:48;20.25;;;4.63;;
66751;SDS011;53663;42.676;23.238;2022-11-02T17:35:31;16.23;;;5.47;;
66751;SDS011;53663;42.676;23.238;2022-11-02T17:37:57;16.92;;;5.03;;
66751;SDS011;53663;42.676;23.238;2022-11-02T17:40:22;23.65;;;6.25;;
66751;SDS011;53663;42.676;23.238;2022-11-02T17:42:48;29.40;;;10.57;;
66751;SDS011;53663;42.676;23.238;2022-11-02T17:45:33;29.95;;;10.02;;
66751;SDS011;53663;42.676;23.238;2022-11-02T17:48:03;17.05;;;6.40;;
66751;SDS011;53663;42.676;23.238;2022-11-02T17:50:31;17.58;;;5.35;;
66751;SDS011;53663;42.676;23.238;2022-11-02T17:52:58;18.90;;;4.93;;
66751;SDS011;53663;42.676;23.238;2022-11-02T17:55:26;22.52;;;4.85;;
66751;SDS011;53663;42.676;23.238;2022-11-02T17:57:53;12.15;;;3.85;;
66751;SDS011;53663;42.676;23.238;2022-11-02T18:00:20;10.52;;;3.60;;
66751;SDS011;53663;42.676;23.238;2022-11-02T18:02:48;16.55;;;4.55;;